Terminal Aerodrome Forecast
Issued by NWS

Home | Current Version | Previous Version | Graphics & Text | Print | Product List | Glossary On
Versions: 1 2 3 4 5 6 7 8 9 10 11 12 13
000
FTUS43 KICT 100500
TAFSLN
TAF
KSLN 100527Z 1006/1106 12014KT P6SM VCTS SCT050CB BKN100
      TEMPO 1007/1010 6SM -TSRA BKN035CB
     FM101000 15014G20KT P6SM SCT100 BKN150
     FM101600 16019G28KT P6SM SCT200
     FM110200 17015G21KT P6SM SKC=

USA.gov is the U.S. government's official web portal to all federal, state and local government web resources and services.